• Join FlightAware (Why Join?)
  • Login
  • US Flag 
12:42AM EST


 

Airport Tracker/Info


-or-


 

Live Flight TrackerFlight Track Log ✈ UAL4660 ✈ 01-Aug-2013 ✈ KIAH - KJAX

Flight Track Log - Related Links

Times and Time Zones

All times are in EDT time to prevent confusion due to time zone crossing. See the UAL4660 flight status page for this flight to view local times or setup timezone preferences in your user account.

Time Position Orientation Groundspeed Altitude Reporting Facility
EDT Latitude Longitude Course Direction KTS MPH feet Rate Location/Type
08:27PM 29.9569 -95.3369 90° East 165 190 800  Level Houston Center
08:28PM 29.9369 -95.2792 112° Southeast 221 254 2,100 1,080 Climbing Houston Center
08:29PM 29.9372 -95.2492 89° East 237 273 2,500 1,620 Climbing Houston Center
08:29PM 29.9378 -95.1969 89° East 260 299 3,800 1,440 Climbing Houston Center
08:30PM 29.9400 -95.1669 85° East 251 289 4,000 1,020 Climbing Houston Center
08:31PM 29.9467 -95.0828 85° East 261 300 5,400 1,620 Climbing Houston Center
08:32PM 29.9542 -94.9992 84° East 262 302 7,400 1,740 Climbing Houston Center
08:33PM 29.9833 -94.5586 90° East  Level FlightAware Approximate
08:33PM 29.9608 -94.9119 85° East 270 311 9,100  Level Houston Center
08:34PM 29.9689 -94.8053 85° East 278 320 11,000 1,380 Climbing Houston Center
08:35PM 29.9767 -94.7083 85° East 298 343 12,000 960 Climbing Houston Center
08:36PM 29.9853 -94.6050 84° East 319 367 13,000 960 Climbing Houston Center
08:37PM 29.9897 -94.4925 87° East 336 387 14,000 1,020 Climbing Houston Center
08:38PM 29.9939 -94.3667 88° East 347 399 15,100 1,020 Climbing Houston Center
08:39PM 30.0011 -94.2525 86° East 356 410 16,100 960 Climbing Houston Center
08:40PM 30.0167 -94.1381 81° East 359 413 17,100 900 Climbing Houston Center
08:41PM 30.0297 -94.0239 82° East 362 417 18,000 900 Climbing Houston Center
08:42PM 30.0444 -93.9097 81° East 360 414 19,000 900 Climbing Houston Center
08:43PM 30.0581 -93.7956 82° East 362 417 19,900 960 Climbing Houston Center
08:44PM 30.0753 -93.6569 82° East 366 421 21,100 960 Climbing Houston Center
08:45PM 30.0881 -93.5419 83° East 367 422 22,000 900 Climbing Houston Center
08:46PM 30.1028 -93.4264 82° East 369 425 23,000 960 Climbing Houston Center
08:47PM 30.1161 -93.3117 82° East 366 421 24,000 1,020 Climbing Houston Center
08:48PM 30.1294 -93.1967 82° East 365 420 25,100 1,080 Climbing Houston Center
08:49PM 30.1625 -93.0642 74° East 359 413 26,300 960 Climbing Houston Center
08:50PM 30.2150 -92.9697 57° Northeast 357 411 27,200 840 Climbing Houston Center
08:51PM 30.2675 -92.8725 58° Northeast 359 413 28,100 900 Climbing Houston Center
08:52PM 30.3208 -92.7756 57° Northeast 360 414 29,100 960 Climbing Houston Center
08:53PM 30.3736 -92.6786 58° Northeast 358 412 30,100 900 Climbing Houston Center
08:55PM 30.4264 -92.5819 58° Northeast 356 410 31,000 1,020 Climbing Houston Center
08:56PM 30.4892 -92.4642 58° Northeast 356 410 32,200 1,020 Climbing Houston Center
08:57PM 30.5414 -92.3681 58° Northeast 354 407 33,200 900 Climbing Houston Center
08:58PM 30.5928 -92.2719 58° Northeast 353 406 34,100 780 Climbing Houston Center
08:59PM 30.6433 -92.1792 58° Northeast 346 398 34,900 420 Climbing Houston Center
09:00PM 30.6956 -92.0808 58° Northeast 353 406 35,000  Climbing Houston Center
09:01PM 30.7514 -91.9764 58° Northeast 372 428 35,000  Level Houston Center
09:02PM 30.8217 -91.8431 58° Northeast 397 457 35,000  Level Houston Center
09:03PM 30.8844 -91.7278 58° Northeast 415 478 35,000  Level Houston Center
09:04PM 30.9456 -91.6131 58° Northeast 419 482 35,000  Level Houston Center
09:05PM 31.0058 -91.5003 58° Northeast 416 479 35,000  Level Houston Center
09:06PM 31.0631 -91.3919 58° Northeast 412 474 35,000  Level Houston Center
09:07PM 31.1233 -91.2789 58° Northeast 410 472 35,000  Level Houston Center
09:08PM 31.1947 -91.1406 59° Northeast 413 475 35,000  Level Houston Center
09:09PM 31.2547 -91.0247 59° Northeast 414 476 35,000  Level Houston Center
09:10PM 31.3161 -90.9078 58° Northeast 420 483 35,000  Level Houston Center
09:11PM 31.3775 -90.7897 59° Northeast 424 488 35,000  Level Houston Center
09:12PM 31.4383 -90.6708 59° Northeast 425 489 35,000  Level Houston Center
09:13PM 31.5006 -90.5494 59° Northeast 430 495 35,000  Level Houston Center
09:14PM 31.5636 -90.4289 58° Northeast 432 497 35,000  Level Houston Center
09:15PM 31.6242 -90.3086 59° Northeast 431 496 35,000  Level Houston Center
09:16PM 31.6869 -90.1867 59° Northeast 432 497 35,000  Level Houston Center
09:17PM 31.7617 -90.0408 59° Northeast 433 498 35,000  Level Houston Center
09:18PM 31.8236 -89.9189 59° Northeast 435 501 35,000  Level Houston Center
09:19PM 31.8797 -89.8081 59° Northeast 436 502 35,000  Level Houston Center
09:20PM 31.9125 -89.7383 61° Northeast 427 491 35,000  Level Memphis Center
09:21PM 31.9744 -89.6178 59° Northeast 427 491 35,000  Level Memphis Center
09:22PM 32.0383 -89.4922 59° Northeast 427 491 35,000  Level Memphis Center
09:23PM 32.0644 -89.3497 78° East 427 491 35,000  Level Memphis Center
09:24PM 32.0569 -89.1981 93° East 439 505 35,000  Level Memphis Center
09:25PM 32.0447 -89.0267 95° East 458 527 35,000  Level Memphis Center
09:26PM 32.0367 -88.8772 94° East 458 527 35,000  Level Memphis Center
09:27PM 32.0286 -88.7231 93° East 458 527 35,000  Level Memphis Center
09:28PM 32.0153 -88.4769 94° East 473 544 35,000  Level Atlanta Center
09:29PM 32.0083 -88.3225 93° East 473 544 35,000  Level Atlanta Center
09:30PM 31.9989 -88.1678 94° East 473 544 35,000  Level Atlanta Center
09:31PM 31.9894 -88.0181 94° East 468 539 35,000  Level Atlanta Center
09:32PM 31.9817 -87.8658 93° East 463 533 35,000  Level Atlanta Center
09:33PM 31.9736 -87.7161 94° East 463 533 35,000  Level Atlanta Center
09:34PM 31.9594 -87.5639 96° East 463 533 35,000  Level Atlanta Center
09:35PM 31.9508 -87.4167 94° East 463 533 35,000  Level Atlanta Center
09:36PM 31.9422 -87.2694 94° East 458 527 35,000  Level Atlanta Center
09:37PM 31.9314 -87.1222 95° East 458 527 35,000  Level Atlanta Center
09:38PM 31.9203 -86.9775 95° East 452 520 35,000  Level Atlanta Center
09:39PM 31.9111 -86.8328 94° East 445 512 35,000  Level Atlanta Center
09:40PM 31.8997 -86.6881 95° East 445 512 35,000  Level Atlanta Center
09:41PM 31.8883 -86.5386 95° East 445 512 35,000  Level Atlanta Center
09:42PM 31.8767 -86.3939 95° East 445 512 35,000  Level Atlanta Center
09:43PM 31.8669 -86.2397 94° East 450 518 35,000  Level Atlanta Center
09:44PM 31.8569 -86.0903 94° East 461 531 35,000  Level Atlanta Center
09:45PM 31.8472 -85.9214 94° East 461 531 35,000  Level Atlanta Center
09:46PM 31.8325 -85.7744 97° East 461 531 35,000  Level Atlanta Center
09:47PM 31.8200 -85.6203 95° East 466 536 35,000  Level Atlanta Center
09:48PM 31.8072 -85.4733 96° East 466 536 35,000  Level Atlanta Center
09:49PM 31.7964 -85.3242 95° East 460 529 35,000  Level Atlanta Center
09:50PM 31.7853 -85.1797 95° East 460 529 35,000  Level Atlanta Center
09:51PM 31.7719 -85.0331 96° East 455 524 35,000  Level Atlanta Center
09:52PM 31.7606 -84.8839 95° East 450 518 35,000  Level Atlanta Center
09:53PM 31.7467 -84.7372 96° East 455 524 35,000  Level Atlanta Center
09:54PM 31.7328 -84.5858 96° East 455 524 35,000  Level Atlanta Center
09:55PM 31.7208 -84.4392 95° East 460 529 35,000 -480 Level Atlanta Center
09:56PM 31.7089 -84.2878 95° East 460 529 34,100 -960 Descending Atlanta Center
09:57PM 31.7006 -84.1989 96° East 490 564 33,500 -1,020 Descending Jacksonville Center
09:58PM 31.6872 -84.0497 96° East 496 571 32,500 -960 Descending Jacksonville Center
09:59PM 31.6719 -83.9031 97° East 475 547 31,600 -960 Descending Jacksonville Center
10:00PM 31.6606 -83.7444 95° East 480 552 30,600 -840 Descending Jacksonville Center
10:01PM 31.6447 -83.5953 97° East 480 552 30,000 -300 Descending Jacksonville Center
10:02PM 31.6308 -83.4611 97° East 464 534 30,000  Level Jacksonville Center
10:03PM 31.6167 -83.3097 96° East 459 528 30,000  Level Jacksonville Center
10:04PM 31.6006 -83.1561 97° East 465 535 30,000  Level Jacksonville Center
10:05PM 31.5861 -83.0047 96° East 465 535 30,000 -600 Level Jacksonville Center
10:06PM 31.5714 -82.8511 96° East 465 535 28,900 -1,800 Descending Jacksonville Center
10:07PM 31.5567 -82.7047 97° East 465 535 26,500 -2,460 Descending Jacksonville Center
10:08PM 31.4958 -82.5783 119° Southeast 447 514 24,000 -2,700 Descending Jacksonville Center
10:09PM 31.3872 -82.4983 148° Southeast 426 490 21,200 -2,820 Descending Jacksonville Center
10:10PM 31.2783 -82.4308 152° Southeast 431 496 18,400 -2,640 Descending Jacksonville Center
10:11PM 31.1819 -82.3656 150° Southeast 417 480 16,000 -2,400 Descending Jacksonville Center
10:12PM 31.0878 -82.3056 151° Southeast 392 451 13,700 -2,040 Descending Jacksonville Center
10:13PM 30.9997 -82.2383 147° Southeast 387 445 12,000 -900 Descending Jacksonville Center
10:14PM 30.9053 -82.1614 145° Southeast 382 440 12,000 -480 Level Jacksonville Center
10:15PM 30.8300 -82.0992 145° Southeast 366 421 11,100 -1,260 Descending Jacksonville Center
10:16PM 30.7606 -82.0439 146° Southeast 328 377 9,500 -1,680 Descending Jacksonville Center
10:17PM 30.6975 -81.9914 144° Southeast 305 351 7,800 -1,800 Descending Jacksonville Center
10:18PM 30.6242 -81.9342 146° Southeast 270 311 5,800 -1,440 Descending Jacksonville Center
10:19PM 30.5758 -81.8936 144° Southeast 270 311 5,000 -1,020 Descending Jacksonville Center
10:20PM 30.5233 -81.8533 147° Southeast 249 287 3,900 -1,200 Descending Jacksonville Center
10:21PM 30.4750 -81.8103 142° Southeast 230 265 2,600 -1,260 Descending Jacksonville Center
10:22PM 30.4578 -81.7694 116° Southeast 161 185 1,200 -960 Descending Jacksonville Center
10:23PM 30.4847 -81.7283 53° Northeast 154 177 600 -600 Descending Jacksonville Center